Paradise — 3FOB5 — position and weather

sailwx.info

Track history (hours):
 
Tides and Currents Weather Stations Pressure Air Temp Water Temp Dewpoint Dewpoint Depression Visibility Wind Speed Wind Dir Waves Ship Positions

Paradise

Operator: Carnival Cruise Lines

Last reported at 2018-Feb-18 12:00 UTC. Time now 2018-Feb-19 10:20 UTC.
Position N 24°18' W 082°30'.

Type: Ship. MMSI: 355833000.

Wind from 050 at 18 knots

Barometer 1021.0 mb
Air temperature 23.0 ° C
Visibility: greater than 10.8 NM
Dewpoint 20.1 ° C
Water temperature 25.0 ° C

Date/timePositionNaut miles runAvg speedWind from/ knotsBaromVisibWave heightAir tempDewpointWater temp
2018-Feb-18 12:00N 24°18' W 082°30'10116.9 050 / 181021.010.8 23.020.125.0
2018-Feb-18 06:00N 25°54' W 083°06'9721.2 050 / 61022.0 5.4 23.018.522.0
2018-Feb-18 01:24N 27°31' W 083°01'1415.9
2018-Feb-18 00:32N 27°37' W 082°47'517.6
2018-Feb-18 00:14N 27°37' W 082°41'716.1
2018-Feb-17 23:48N 27°41' W 082°35'515.4
2018-Feb-17 23:30N 27°44' W 082°32'713.0
2018-Feb-17 23:00N 27°49' W 082°27'511.1
2018-Feb-17 22:30N 27°55' W 082°27'2 3.2
2018-Feb-17 21:59N 27°57' W 082°27'0 0.0
2018-Feb-17 21:26N 27°57' W 082°27'0 0.0
2018-Feb-17 20:58N 27°57' W 082°27'0 0.0
2018-Feb-17 20:28N 27°57' W 082°27'0 0.0
2018-Feb-17 19:58N 27°57' W 082°27'0 0.0
2018-Feb-17 19:28N 27°57' W 082°27'0 0.0
2018-Feb-17 19:01N 27°57' W 082°27'0 0.0
2018-Feb-17 18:30N 27°57' W 082°27'0 0.0
2018-Feb-17 18:00N 27°57' W 082°27'0 0.0
2018-Feb-17 17:30N 27°57' W 082°27'0 0.0
2018-Feb-17 17:00N 27°57' W 082°27'0 0.0
2018-Feb-17 16:29N 27°57' W 082°27'0 0.0
2018-Feb-17 15:59N 27°57' W 082°27'0 0.0
2018-Feb-17 15:29N 27°57' W 082°27'0 0.0
2018-Feb-17 14:59N 27°57' W 082°27'0 0.0
2018-Feb-17 14:29N 27°57' W 082°27'0 0.0
2018-Feb-17 13:58N 27°57' W 082°27'0 0.0
2018-Feb-17 13:21N 27°57' W 082°27'0 0.0
2018-Feb-17 12:58N 27°57' W 082°27'0 0.0
2018-Feb-17 12:28N 27°57' W 082°27'0 0.0
2018-Feb-17 12:00N 27°57' W 082°27'0 0.0
2018-Feb-17 11:30N 27°57' W 082°27'0 0.0
2018-Feb-17 11:00N 27°57' W 082°27'0 0.0
2018-Feb-17 10:30N 27°57' W 082°27'0 0.0
2018-Feb-17 10:00N 27°57' W 082°27'0 0.0
2018-Feb-17 09:30N 27°57' W 082°27'1 1.2
2018-Feb-17 09:00N 27°56' W 082°27'1 2.7
2018-Feb-17 08:30N 27°55' W 082°26'5 9.0
2018-Feb-17 08:00N 27°50' W 082°27'611.1
2018-Feb-17 07:30N 27°46' W 082°31'611.8
2018-Feb-17 07:00N 27°41' W 082°34'715.1
2018-Feb-17 06:30N 27°37' W 082°41'14815.5
2018-Feb-16 21:00N 25°30' W 084°06'10517.6 080 / 51020.010.8 25.020.724.0
2018-Feb-16 15:00N 23°54' W 084°54'14816.4 100 / 151022.010.8 26.020.226.0
2018-Feb-16 06:00N 21°42' W 086°06'8018.1 090 / 221021.010.8 25.015.826.0
2018-Feb-16 01:35N 20°37' W 086°55'318.3
2018-Feb-16 01:27N 20°35' W 086°57'613.2
2018-Feb-16 00:59N 20°29' W 086°59'0 0.7
2018-Feb-16 00:28N 20°29' W 086°59'0 0.0
2018-Feb-15 23:58N 20°29' W 086°59'0 0.0
2018-Feb-15 23:30N 20°29' W 086°59'0 0.0
2018-Feb-15 23:00N 20°29' W 086°59'0 0.0
2018-Feb-15 22:30N 20°29' W 086°59'0 0.0
2018-Feb-15 22:00N 20°29' W 086°59'0 0.0
2018-Feb-15 21:29N 20°29' W 086°59'0 0.0
2018-Feb-15 20:59N 20°29' W 086°59'0 0.0
2018-Feb-15 20:29N 20°29' W 086°59'0 0.0
2018-Feb-15 19:59N 20°29' W 086°59'0 0.0
2018-Feb-15 19:29N 20°29' W 086°59'0 0.0
2018-Feb-15 18:58N 20°29' W 086°59'0 0.0
2018-Feb-15 18:28N 20°29' W 086°59'0 0.0
2018-Feb-15 17:58N 20°29' W 086°59'0 0.0
2018-Feb-15 17:28N 20°29' W 086°59'0 0.0
2018-Feb-15 16:58N 20°29' W 086°59'0 0.0
2018-Feb-15 16:30N 20°29' W 086°59'0 0.0
2018-Feb-15 16:00N 20°29' W 086°59'0 0.0
2018-Feb-15 15:30N 20°29' W 086°59'0 0.0
2018-Feb-15 15:00N 20°29' W 086°59'0 1.0
2018-Feb-15 14:31N 20°29' W 086°59'5 9.4
2018-Feb-15 14:00N 20°34' W 086°57'4816.0
2018-Feb-15 11:00N 20°30' W 086°06'10617.6 080 / 221022.010.8 26.023.225.0
2018-Feb-15 05:00N 20°00' W 084°18'15319.1 090 / 251023.010.8 25.020.726.0
2018-Feb-14 21:00N 19°18' W 081°42'215 9.4 060 / 251022.010.8 26.020.225.0
2018-Feb-13 22:00N 21°24' W 084°48'5714.1 070 / 251018.010.8 25.020.724.0
2018-Feb-13 18:00N 22°18' W 085°06'4515.1 110 / 201023.010.8 25.022.227.0
2018-Feb-13 15:00N 23°00' W 084°48'6622.0 100 / 301025.010.8 25.020.726.0
2018-Feb-13 12:00N 24°00' W 084°18'10717.9 030 / 801015.010.8 24.022.626.0
2018-Feb-13 06:00N 25°42' W 083°42'12819.0 070 / 91027.010.8 22.020.624.0
2018-Feb-12 23:16N 27°37' W 082°39'614.5
2018-Feb-12 22:52N 27°41' W 082°35'513.9
2018-Feb-12 22:31N 27°45' W 082°31'612.1
2018-Feb-12 22:00N 27°50' W 082°27'611.1
2018-Feb-12 21:31N 27°55' W 082°27'1 2.9
2018-Feb-12 21:00N 27°57' W 082°27'0 0.0
2018-Feb-12 20:28N 27°57' W 082°27'0 0.0
2018-Feb-12 19:58N 27°57' W 082°27'0 0.0
2018-Feb-12 19:28N 27°57' W 082°27'0 0.0
2018-Feb-12 18:58N 27°57' W 082°27'0 0.0
2018-Feb-12 18:31N 27°57' W 082°27'0 0.0
2018-Feb-12 18:00N 27°57' W 082°27'0 0.0
2018-Feb-12 17:30N 27°57' W 082°27'0 0.0
2018-Feb-12 17:00N 27°57' W 082°27'0 0.0
2018-Feb-12 16:30N 27°57' W 082°27'0 0.0
2018-Feb-12 15:59N 27°57' W 082°27'0 0.0
2018-Feb-12 13:01N 27°57' W 082°27'0 0.0
2018-Feb-12 12:58N 27°57' W 082°27'0 0.0
2018-Feb-12 12:28N 27°57' W 082°27'0 0.0
2018-Feb-12 11:58N 27°57' W 082°27'0 0.0
2018-Feb-12 11:30N 27°57' W 082°27'0 0.0
2018-Feb-12 11:00N 27°57' W 082°27'0 0.0
2018-Feb-12 10:30N 27°57' W 082°27'0 0.0
2018-Feb-12 10:00N 27°57' W 082°27'0 0.0
2018-Feb-12 09:30N 27°57' W 082°27'0 0.0
2018-Feb-12 09:00N 27°57' W 082°27'1 1.6
2018-Feb-12 08:30N 27°56' W 082°27'2 4.3
2018-Feb-12 08:00N 27°54' W 082°26'612.0
2018-Feb-12 07:30N 27°48' W 082°28'612.4
2018-Feb-12 07:01N 27°43' W 082°32'813.8
2018-Feb-12 06:27N 27°38' W 082°38'10313.8
2018-Feb-11 23:00N 26°12' W 083°42'16615.1 130 / 101017.0 5.4 23.021.622.0
2018-Feb-11 12:00N 23°42' W 085°00'21417.6 130 / 201017.010.8 24.021.126.0
2018-Feb-10 23:51N 20°37' W 086°55'618.0
2018-Feb-10 23:30N 20°31' W 086°58'3 4.8
2018-Feb-10 22:58N 20°29' W 086°59'0 0.0
2018-Feb-10 22:28N 20°29' W 086°59'0 0.0
2018-Feb-10 22:00N 20°29' W 086°59'0 0.0
2018-Feb-10 21:30N 20°29' W 086°59'0 0.0
2018-Feb-10 21:00N 20°29' W 086°59'0 0.0
2018-Feb-10 20:30N 20°29' W 086°59'0 0.0
2018-Feb-10 19:57N 20°29' W 086°59'0 0.0
2018-Feb-10 19:29N 20°29' W 086°59'0 0.0
2018-Feb-10 18:59N 20°29' W 086°59'0 0.0
2018-Feb-10 18:26N 20°29' W 086°59'0 0.0
2018-Feb-10 17:59N 20°29' W 086°59'0 0.0
2018-Feb-10 17:28N 20°29' W 086°59'0 0.0
2018-Feb-10 17:00N 20°29' W 086°59'0 0.0
2018-Feb-10 16:25N 20°29' W 086°59'0 0.0
2018-Feb-10 15:58N 20°29' W 086°59'0 0.0
2018-Feb-10 15:28N 20°29' W 086°59'0 0.0
2018-Feb-10 14:57N 20°29' W 086°59'0 0.0
2018-Feb-10 14:30N 20°29' W 086°59'0 0.0
2018-Feb-10 14:00N 20°29' W 086°59'0 0.0
2018-Feb-10 13:30N 20°29' W 086°59'0 0.0
2018-Feb-10 13:00N 20°29' W 086°59'0 0.7
2018-Feb-10 12:30N 20°29' W 086°59'4 7.3
2018-Feb-10 12:00N 20°33' W 086°60'510.3
2018-Feb-10 11:30N 20°37' W 086°57'1811.8
2018-Feb-10 10:00N 20°48' W 086°42'13710.6 110 / 221016.027.0 25.022.226.0
2018-Feb-09 21:00N 22°48' W 085°30'12113.5 100 / 201019.027.0 25.020.725.0
2018-Feb-09 12:00N 24°36' W 084°30'22716.2 070 / 301018.027.0 22.020.623.0
2018-Feb-08 22:00N 27°54' W 082°26'2 4.7
2018-Feb-08 21:30N 27°57' W 082°27'  
Track history (hours):
 
Tides and Currents Weather Stations Pressure Air Temp Water Temp Dewpoint Dewpoint Depression Visibility Wind Speed Wind Dir Waves Ship Positions

Paradise

Operator: Carnival Cruise Lines

Last reported at 2018-Feb-18 12:00 UTC. Time now 2018-Feb-19 10:20 UTC.
Position N 24°18' W 082°30'.

Type: Ship. MMSI: 355833000.

Wind from 050 at 18 knots

Barometer 1021.0 mb
Air temperature 23.0 ° C
Visibility: greater than 10.8 NM
Dewpoint 20.1 ° C
Water temperature 25.0 ° C

Date/timePositionNaut miles runAvg speedWind from/ knotsBaromVisibWave heightAir tempDewpointWater temp
2018-Feb-18 12:00N 24°18' W 082°30'10116.9 050 / 181021.010.8 23.020.125.0
2018-Feb-18 06:00N 25°54' W 083°06'9721.2 050 / 61022.0 5.4 23.018.522.0
2018-Feb-18 01:24N 27°31' W 083°01'1415.9
2018-Feb-18 00:32N 27°37' W 082°47'517.6
2018-Feb-18 00:14N 27°37' W 082°41'716.1
2018-Feb-17 23:48N 27°41' W 082°35'515.4
2018-Feb-17 23:30N 27°44' W 082°32'713.0
2018-Feb-17 23:00N 27°49' W 082°27'511.1
2018-Feb-17 22:30N 27°55' W 082°27'2 3.2
2018-Feb-17 21:59N 27°57' W 082°27'0 0.0
2018-Feb-17 21:26N 27°57' W 082°27'0 0.0
2018-Feb-17 20:58N 27°57' W 082°27'0 0.0
2018-Feb-17 20:28N 27°57' W 082°27'0 0.0
2018-Feb-17 19:58N 27°57' W 082°27'0 0.0
2018-Feb-17 19:28N 27°57' W 082°27'0 0.0
2018-Feb-17 19:01N 27°57' W 082°27'0 0.0
2018-Feb-17 18:30N 27°57' W 082°27'0 0.0
2018-Feb-17 18:00N 27°57' W 082°27'0 0.0
2018-Feb-17 17:30N 27°57' W 082°27'0 0.0
2018-Feb-17 17:00N 27°57' W 082°27'0 0.0
2018-Feb-17 16:29N 27°57' W 082°27'0 0.0
2018-Feb-17 15:59N 27°57' W 082°27'0 0.0
2018-Feb-17 15:29N 27°57' W 082°27'0 0.0
2018-Feb-17 14:59N 27°57' W 082°27'0 0.0
2018-Feb-17 14:29N 27°57' W 082°27'0 0.0
2018-Feb-17 13:58N 27°57' W 082°27'0 0.0
2018-Feb-17 13:21N 27°57' W 082°27'0 0.0
2018-Feb-17 12:58N 27°57' W 082°27'0 0.0
2018-Feb-17 12:28N 27°57' W 082°27'0 0.0
2018-Feb-17 12:00N 27°57' W 082°27'0 0.0
2018-Feb-17 11:30N 27°57' W 082°27'0 0.0
2018-Feb-17 11:00N 27°57' W 082°27'0 0.0
2018-Feb-17 10:30N 27°57' W 082°27'0 0.0
2018-Feb-17 10:00N 27°57' W 082°27'0 0.0
2018-Feb-17 09:30N 27°57' W 082°27'1 1.2
2018-Feb-17 09:00N 27°56' W 082°27'1 2.7
2018-Feb-17 08:30N 27°55' W 082°26'5 9.0
2018-Feb-17 08:00N 27°50' W 082°27'611.1
2018-Feb-17 07:30N 27°46' W 082°31'611.8
2018-Feb-17 07:00N 27°41' W 082°34'715.1
2018-Feb-17 06:30N 27°37' W 082°41'14815.5
2018-Feb-16 21:00N 25°30' W 084°06'10517.6 080 / 51020.010.8 25.020.724.0
2018-Feb-16 15:00N 23°54' W 084°54'14816.4 100 / 151022.010.8 26.020.226.0
2018-Feb-16 06:00N 21°42' W 086°06'8018.1 090 / 221021.010.8 25.015.826.0
2018-Feb-16 01:35N 20°37' W 086°55'318.3
2018-Feb-16 01:27N 20°35' W 086°57'613.2
2018-Feb-16 00:59N 20°29' W 086°59'0 0.7
2018-Feb-16 00:28N 20°29' W 086°59'0 0.0
2018-Feb-15 23:58N 20°29' W 086°59'0 0.0
2018-Feb-15 23:30N 20°29' W 086°59'0 0.0
2018-Feb-15 23:00N 20°29' W 086°59'0 0.0
2018-Feb-15 22:30N 20°29' W 086°59'0 0.0
2018-Feb-15 22:00N 20°29' W 086°59'0 0.0
2018-Feb-15 21:29N 20°29' W 086°59'0 0.0
2018-Feb-15 20:59N 20°29' W 086°59'0 0.0
2018-Feb-15 20:29N 20°29' W 086°59'0 0.0
2018-Feb-15 19:59N 20°29' W 086°59'0 0.0
2018-Feb-15 19:29N 20°29' W 086°59'0 0.0
2018-Feb-15 18:58N 20°29' W 086°59'0 0.0
2018-Feb-15 18:28N 20°29' W 086°59'0 0.0
2018-Feb-15 17:58N 20°29' W 086°59'0 0.0
2018-Feb-15 17:28N 20°29' W 086°59'0 0.0
2018-Feb-15 16:58N 20°29' W 086°59'0 0.0
2018-Feb-15 16:30N 20°29' W 086°59'0 0.0
2018-Feb-15 16:00N 20°29' W 086°59'0 0.0
2018-Feb-15 15:30N 20°29' W 086°59'0 0.0
2018-Feb-15 15:00N 20°29' W 086°59'0 1.0
2018-Feb-15 14:31N 20°29' W 086°59'5 9.4
2018-Feb-15 14:00N 20°34' W 086°57'4816.0
2018-Feb-15 11:00N 20°30' W 086°06'10617.6 080 / 221022.010.8 26.023.225.0
2018-Feb-15 05:00N 20°00' W 084°18'15319.1 090 / 251023.010.8 25.020.726.0
2018-Feb-14 21:00N 19°18' W 081°42'215 9.4 060 / 251022.010.8 26.020.225.0
2018-Feb-13 22:00N 21°24' W 084°48'5714.1 070 / 251018.010.8 25.020.724.0
2018-Feb-13 18:00N 22°18' W 085°06'4515.1 110 / 201023.010.8 25.022.227.0
2018-Feb-13 15:00N 23°00' W 084°48'6622.0 100 / 301025.010.8 25.020.726.0
2018-Feb-13 12:00N 24°00' W 084°18'10717.9 030 / 801015.010.8 24.022.626.0
2018-Feb-13 06:00N 25°42' W 083°42'12819.0 070 / 91027.010.8 22.020.624.0
2018-Feb-12 23:16N 27°37' W 082°39'614.5
2018-Feb-12 22:52N 27°41' W 082°35'513.9
2018-Feb-12 22:31N 27°45' W 082°31'612.1
2018-Feb-12 22:00N 27°50' W 082°27'611.1
2018-Feb-12 21:31N 27°55' W 082°27'1 2.9
2018-Feb-12 21:00N 27°57' W 082°27'0 0.0
2018-Feb-12 20:28N 27°57' W 082°27'0 0.0
2018-Feb-12 19:58N 27°57' W 082°27'0 0.0
2018-Feb-12 19:28N 27°57' W 082°27'0 0.0
2018-Feb-12 18:58N 27°57' W 082°27'0 0.0
2018-Feb-12 18:31N 27°57' W 082°27'0 0.0
2018-Feb-12 18:00N 27°57' W 082°27'0 0.0
2018-Feb-12 17:30N 27°57' W 082°27'0 0.0
2018-Feb-12 17:00N 27°57' W 082°27'0 0.0
2018-Feb-12 16:30N 27°57' W 082°27'0 0.0
2018-Feb-12 15:59N 27°57' W 082°27'0 0.0
2018-Feb-12 13:01N 27°57' W 082°27'0 0.0
2018-Feb-12 12:58N 27°57' W 082°27'0 0.0
2018-Feb-12 12:28N 27°57' W 082°27'0 0.0
2018-Feb-12 11:58N 27°57' W 082°27'0 0.0
2018-Feb-12 11:30N 27°57' W 082°27'0 0.0
2018-Feb-12 11:00N 27°57' W 082°27'0 0.0
2018-Feb-12 10:30N 27°57' W 082°27'0 0.0
2018-Feb-12 10:00N 27°57' W 082°27'0 0.0
2018-Feb-12 09:30N 27°57' W 082°27'0 0.0
2018-Feb-12 09:00N 27°57' W 082°27'1 1.6
2018-Feb-12 08:30N 27°56' W 082°27'2 4.3
2018-Feb-12 08:00N 27°54' W 082°26'612.0
2018-Feb-12 07:30N 27°48' W 082°28'612.4
2018-Feb-12 07:01N 27°43' W 082°32'813.8
2018-Feb-12 06:27N 27°38' W 082°38'10313.8
2018-Feb-11 23:00N 26°12' W 083°42'16615.1 130 / 101017.0 5.4 23.021.622.0
2018-Feb-11 12:00N 23°42' W 085°00'21417.6 130 / 201017.010.8 24.021.126.0
2018-Feb-10 23:51N 20°37' W 086°55'618.0
2018-Feb-10 23:30N 20°31' W 086°58'3 4.8
2018-Feb-10 22:58N 20°29' W 086°59'0 0.0
2018-Feb-10 22:28N 20°29' W 086°59'0 0.0
2018-Feb-10 22:00N 20°29' W 086°59'0 0.0
2018-Feb-10 21:30N 20°29' W 086°59'0 0.0
2018-Feb-10 21:00N 20°29' W 086°59'0 0.0
2018-Feb-10 20:30N 20°29' W 086°59'0 0.0
2018-Feb-10 19:57N 20°29' W 086°59'0 0.0
2018-Feb-10 19:29N 20°29' W 086°59'0 0.0
2018-Feb-10 18:59N 20°29' W 086°59'0 0.0
2018-Feb-10 18:26N 20°29' W 086°59'0 0.0
2018-Feb-10 17:59N 20°29' W 086°59'0 0.0
2018-Feb-10 17:28N 20°29' W 086°59'0 0.0
2018-Feb-10 17:00N 20°29' W 086°59'0 0.0
2018-Feb-10 16:25N 20°29' W 086°59'0 0.0
2018-Feb-10 15:58N 20°29' W 086°59'0 0.0
2018-Feb-10 15:28N 20°29' W 086°59'0 0.0
2018-Feb-10 14:57N 20°29' W 086°59'0 0.0
2018-Feb-10 14:30N 20°29' W 086°59'0 0.0
2018-Feb-10 14:00N 20°29' W 086°59'0 0.0
2018-Feb-10 13:30N 20°29' W 086°59'0 0.0
2018-Feb-10 13:00N 20°29' W 086°59'0 0.7
2018-Feb-10 12:30N 20°29' W 086°59'4 7.3
2018-Feb-10 12:00N 20°33' W 086°60'510.3
2018-Feb-10 11:30N 20°37' W 086°57'1811.8
2018-Feb-10 10:00N 20°48' W 086°42'13710.6 110 / 221016.027.0 25.022.226.0
2018-Feb-09 21:00N 22°48' W 085°30'12113.5 100 / 201019.027.0 25.020.725.0
2018-Feb-09 12:00N 24°36' W 084°30'22716.2 070 / 301018.027.0 22.020.623.0
2018-Feb-08 22:00N 27°54' W 082°26'2 4.7
2018-Feb-08 21:30N 27°57' W 082°27'  

Dump ship's entire track history